Time,TemperatureF,DewpointF,PressureIn,WindDirection,WindDirectionDegrees,WindSpeedMPH,WindSpeedGustMPH,Humidity,HourlyPrecipIn,Conditions,Clouds,dailyrainin,SolarRadiationWatts/m^2,SoftwareType,DateUTC
2015-04-27 00:00:00,45.6,41.4,30.15,ENE,72,0.0,0.0,85,0.00,CLR,SCT,0.00,0.0,WeatherDisplay:10.37,2015-04-27 07:00:00,
2015-04-27 00:05:00,45.5,41.3,30.15,ENE,72,0.0,0.0,85,0.00,CLR,SCT,0.00,0.0,WeatherDisplay:10.37,2015-04-27 07:05:00,
2015-04-27 00:10:00,45.4,41.5,30.14,ENE,72,0.0,0.0,86,0.00,CLR,SCT,0.00,0.0,WeatherDisplay:10.37,2015-04-27 07:10:00,
2015-04-27 00:15:00,45.3,41.1,30.14,ENE,72,0.0,0.0,85,0.00,CLR,SCT,0.00,0.0,WeatherDisplay:10.37,2015-04-27 07:15:00,
2015-04-27 00:20:00,45.3,41.1,30.14,ENE,72,0.0,0.0,85,0.00,CLR,SCT,0.00,0.0,WeatherDisplay:10.37,2015-04-27 07:20:00,
2015-04-27 00:25:00,45.2,41.0,30.14,ENE,72,0.0,0.0,85,0.00,CLR,SCT,0.00,0.0,WeatherDisplay:10.37,2015-04-27 07:25:00,
2015-04-27 00:35:00,45.1,40.6,30.13,ENE,72,0.0,0.0,84,0.00,CLR,SCT,0.00,0.0,WeatherDisplay:10.37,2015-04-27 07:35:00,
2015-04-27 00:40:00,45.0,40.1,30.13,NE,51,0.0,0.0,83,0.00,CLR,SCT,0.00,0.0,WeatherDisplay:10.37,2015-04-27 07:40:00,
2015-04-27 00:45:00,44.9,40.4,30.13,NE,51,0.0,0.0,84,0.00,CLR,SCT,0.00,0.0,WeatherDisplay:10.37,2015-04-27 07:45:00,
2015-04-27 00:50:00,44.9,40.7,30.13,North,11,0.0,0.0,85,0.00,CLR,SCT,0.00,0.0,WeatherDisplay:10.37,2015-04-27 07:50:00,
2015-04-27 00:55:00,44.9,40.7,30.13,NNE,12,0.0,0.0,85,0.00,CLR,SCT,0.00,0.0,WeatherDisplay:10.37,2015-04-27 07:55:00,
2015-04-27 01:00:00,44.9,40.7,30.13,NNE,12,0.0,0.0,85,0.00,CLR,SCT,0.00,0.0,WeatherDisplay:10.37,2015-04-27 08:00:00,
2015-04-27 01:05:00,44.8,40.6,30.12,NNE,12,0.0,0.0,85,0.00,CLR,SCT,0.00,0.0,WeatherDisplay:10.37,2015-04-27 08:05:00,
2015-04-27 01:10:00,44.7,40.8,30.12,NNE,12,0.0,0.0,86,0.00,CLR,SCT,0.00,0.0,WeatherDisplay:10.37,2015-04-27 08:10:00,
2015-04-27 01:15:00,44.6,40.4,30.12,East,94,0.0,0.0,85,0.00,CLR,SCT,0.00,0.0,WeatherDisplay:10.37,2015-04-27 08:15:00,
2015-04-27 01:20:00,44.6,40.7,30.12,East,94,0.0,0.0,86,0.00,CLR,SCT,0.00,0.0,WeatherDisplay:10.37,2015-04-27 08:20:00,
2015-04-27 01:25:00,44.5,40.6,30.12,East,94,0.0,0.0,86,0.00,CLR,SCT,0.00,0.0,WeatherDisplay:10.37,2015-04-27 08:25:00,
2015-04-27 01:30:00,44.5,40.6,30.12,East,94,0.0,0.0,86,0.00,CLR,SCT,0.00,0.0,WeatherDisplay:10.37,2015-04-27 08:30:00,
2015-04-27 01:35:00,44.5,40.6,30.11,East,94,0.0,0.0,86,0.00,CLR,SCT,0.00,0.0,WeatherDisplay:10.37,2015-04-27 08:35:00,
2015-04-27 01:40:00,44.4,40.5,30.11,ESE,103,3.5,3.5,86,0.00,CLR,SCT,0.00,0.0,WeatherDisplay:10.37,2015-04-27 08:40:00,
2015-04-27 01:45:00,44.3,40.1,30.11,East,80,0.0,0.0,85,0.00,CLR,SCT,0.00,0.0,WeatherDisplay:10.37,2015-04-27 08:45:00,
2015-04-27 01:50:00,44.3,40.4,30.11,East,80,0.0,0.0,86,0.00,CLR,SCT,0.00,0.0,WeatherDisplay:10.37,2015-04-27 08:50:00,
2015-04-27 01:55:00,44.2,40.3,30.11,East,80,2.3,2.3,86,0.00,CLR,SCT,0.00,0.0,WeatherDisplay:10.37,2015-04-27 08:55:00,
2015-04-27 02:00:00,44.2,40.3,30.11,ENE,59,2.3,2.3,86,0.00,CLR,SCT,0.00,0.0,WeatherDisplay:10.37,2015-04-27 09:00:00,
2015-04-27 02:05:00,44.1,40.2,30.11,ENE,65,0.0,0.0,86,0.00,CLR,SCT,0.00,0.0,WeatherDisplay:10.37,2015-04-27 09:05:00,
2015-04-27 02:10:00,43.9,40.3,30.10,North,355,2.3,2.3,87,0.00,CLR,SCT,0.00,0.0,WeatherDisplay:10.37,2015-04-27 09:10:00,
2015-04-27 02:15:00,43.7,40.1,30.10,East,90,1.1,1.1,87,0.00,CLR,SCT,0.00,0.0,WeatherDisplay:10.37,2015-04-27 09:15:00,
2015-04-27 02:20:00,43.5,39.6,30.10,East,93,2.3,2.3,86,0.00,CLR,SCT,0.00,0.0,WeatherDisplay:10.37,2015-04-27 09:20:00,
2015-04-27 02:25:00,43.4,39.8,30.10,ENE,71,2.3,2.3,87,0.00,CLR,SCT,0.00,0.0,WeatherDisplay:10.37,2015-04-27 09:25:00,
2015-04-27 02:30:00,43.5,39.9,30.10,NE,41,1.1,1.1,87,0.00,CLR,SCT,0.00,0.0,WeatherDisplay:10.37,2015-04-27 09:30:00,
2015-04-27 02:35:00,43.5,39.6,30.10,North,355,2.3,2.3,86,0.00,CLR,SCT,0.00,0.0,WeatherDisplay:10.37,2015-04-27 09:35:00,
2015-04-27 02:40:00,43.6,39.7,30.10,North,355,0.0,0.0,86,0.00,CLR,SCT,0.00,0.0,WeatherDisplay:10.37,2015-04-27 09:40:00,
2015-04-27 02:45:00,43.7,40.1,30.10,North,355,1.1,0.0,87,0.00,CLR,SCT,0.00,0.0,WeatherDisplay:10.37,2015-04-27 09:45:00,
2015-04-27 02:50:00,43.8,40.2,30.10,North,355,2.3,2.3,87,0.00,CLR,SCT,0.00,0.0,WeatherDisplay:10.37,2015-04-27 09:50:00,
2015-04-27 02:55:00,43.8,40.2,30.10,NNW,328,1.1,1.1,87,0.00,CLR,SCT,0.00,0.0,WeatherDisplay:10.37,2015-04-27 09:55:00,
2015-04-27 03:00:00,43.8,40.2,30.10,NNW,328,0.0,0.0,87,0.00,CLR,SCT,0.00,0.0,WeatherDisplay:10.37,2015-04-27 10:00:00,
2015-04-27 03:05:00,43.9,40.6,30.10,NNW,328,1.1,1.1,88,0.00,CLR,SCT,0.00,0.0,WeatherDisplay:10.37,2015-04-27 10:05:00,
2015-04-27 03:10:00,44.0,40.7,30.10,NNW,328,2.3,2.3,88,0.00,CLR,SCT,0.00,0.0,WeatherDisplay:10.37,2015-04-27 10:10:00,
2015-04-27 03:15:00,44.1,40.5,30.10,NNW,328,2.3,2.3,87,0.00,CLR,SCT,0.00,0.0,WeatherDisplay:10.37,2015-04-27 10:15:00,
2015-04-27 03:20:00,44.3,40.7,30.10,NNW,328,0.0,0.0,87,0.00,CLR,SCT,0.00,0.0,WeatherDisplay:10.37,2015-04-27 10:20:00,
2015-04-27 03:25:00,44.4,41.1,30.11,NNW,328,1.1,0.0,88,0.00,CLR,SCT,0.00,0.0,WeatherDisplay:10.37,2015-04-27 10:25:00,
2015-04-27 03:30:00,44.5,40.9,30.10,NNW,328,1.1,1.1,87,0.00,CLR,SCT,0.00,0.0,WeatherDisplay:10.37,2015-04-27 10:30:00,
2015-04-27 03:35:00,44.5,40.9,30.11,NNW,328,0.0,0.0,87,0.00,CLR,SCT,0.00,0.0,WeatherDisplay:10.37,2015-04-27 10:35:00,
2015-04-27 03:40:00,44.6,41.0,30.10,NNW,328,1.0,0.0,87,0.00,CLR,SCT,0.00,0.0,WeatherDisplay:10.37,2015-04-27 10:40:00,
2015-04-27 03:50:00,44.6,40.4,30.11,NNE,28,1.1,1.1,85,0.00,CLR,SCT,0.00,0.0,WeatherDisplay:10.37,2015-04-27 10:50:00,
2015-04-27 03:55:00,44.7,40.8,30.11,NNE,20,1.1,1.1,86,0.00,CLR,SCT,0.00,0.0,WeatherDisplay:10.37,2015-04-27 10:55:00,
2015-04-27 04:00:00,44.7,40.2,30.11,NNE,17,1.1,1.1,84,0.00,CLR,SCT,0.00,0.0,WeatherDisplay:10.37,2015-04-27 11:00:00,
2015-04-27 04:05:00,44.7,40.5,30.11,NNE,17,2.3,2.3,85,0.00,CLR,SCT,0.00,0.0,WeatherDisplay:10.37,2015-04-27 11:05:00,
2015-04-27 04:10:00,44.6,40.7,30.10,NE,46,2.3,2.3,86,0.00,CLR,SCT,0.00,0.0,WeatherDisplay:10.37,2015-04-27 11:10:00,
2015-04-27 04:15:00,44.5,40.6,30.10,East,101,2.3,2.3,86,0.00,CLR,SCT,0.00,0.0,WeatherDisplay:10.37,2015-04-27 11:15:00,
2015-04-27 04:20:00,44.4,40.5,30.10,NNW,328,1.1,1.1,86,0.00,CLR,SCT,0.00,0.0,WeatherDisplay:10.37,2015-04-27 11:20:00,
2015-04-27 04:25:00,44.3,40.4,30.10,NE,52,2.3,2.3,86,0.00,CLR,SCT,0.00,0.0,WeatherDisplay:10.37,2015-04-27 11:25:00,
2015-04-27 04:30:00,44.3,40.4,30.10,NNW,342,1.1,1.1,86,0.00,CLR,SCT,0.00,0.0,WeatherDisplay:10.37,2015-04-27 11:30:00,
2015-04-27 04:38:00,44.2,40.3,30.10,NNW,340,1.0,0.0,86,0.00,CLR,SCT,0.00,0.0,WeatherDisplay:10.37,2015-04-27 11:38:00,
2015-04-27 04:43:00,44.1,40.2,30.10,North,355,1.0,1.0,86,0.00,CLR,SCT,0.00,0.0,WeatherDisplay:10.37,2015-04-27 11:43:00,
2015-04-27 04:48:00,44.0,39.5,30.10,NNW,329,3.0,3.0,84,0.00,CLR,SCT,0.00,0.0,WeatherDisplay:10.37,2015-04-27 11:48:00,
2015-04-27 04:53:00,43.8,39.6,30.10,NNW,333,3.5,3.5,85,0.00,CLR,SCT,0.00,0.0,WeatherDisplay:10.37,2015-04-27 11:53:00,
2015-04-27 04:58:00,43.6,39.4,30.09,NW,325,3.5,0.0,85,0.00,CLR,SCT,0.00,0.0,WeatherDisplay:10.37,2015-04-27 11:58:00,
2015-04-27 05:03:00,43.6,39.4,30.09,NW,325,2.3,2.3,85,0.00,CLR,SCT,0.00,0.0,WeatherDisplay:10.37,2015-04-27 12:03:00,
2015-04-27 05:08:00,43.6,40.0,30.09,NW,321,3.0,3.0,87,0.00,CLR,SCT,0.00,0.0,WeatherDisplay:10.37,2015-04-27 12:08:00,
2015-04-27 05:13:00,43.8,39.0,30.09,NW,322,2.3,2.3,83,0.00,CLR,SCT,0.00,0.0,WeatherDisplay:10.37,2015-04-27 12:13:00,
2015-04-27 05:18:00,43.9,39.4,30.09,NW,322,1.1,0.0,84,0.00,CLR,SCT,0.00,0.0,WeatherDisplay:10.37,2015-04-27 12:18:00,
2015-04-27 05:23:00,44.0,39.2,30.09,NW,322,2.3,2.3,83,0.00,CLR,SCT,0.00,0.0,WeatherDisplay:10.37,2015-04-27 12:23:00,
2015-04-27 05:28:00,44.1,39.6,30.09,NW,322,0.0,0.0,84,0.00,CLR,SCT,0.00,0.0,WeatherDisplay:10.37,2015-04-27 12:28:00,
2015-04-27 05:33:00,44.2,40.3,30.10,NW,322,2.3,2.3,86,0.00,CLR,SCT,0.00,0.0,WeatherDisplay:10.37,2015-04-27 12:33:00,
2015-04-27 05:38:00,44.1,40.2,30.10,NW,322,1.1,1.1,86,0.00,CLR,SCT,0.00,0.0,WeatherDisplay:10.37,2015-04-27 12:38:00,
2015-04-27 05:43:00,44.0,39.8,30.10,NW,322,0.0,0.0,85,0.00,CLR,SCT,0.00,0.0,WeatherDisplay:10.37,2015-04-27 12:43:00,
2015-04-27 05:48:00,44.0,40.1,30.10,NW,322,0.0,0.0,86,0.00,CLR,SCT,0.00,0.0,WeatherDisplay:10.37,2015-04-27 12:48:00,
2015-04-27 05:53:00,44.1,40.5,30.10,NW,322,1.0,1.0,87,0.00,CLR,SCT,0.00,0.0,WeatherDisplay:10.37,2015-04-27 12:53:00,
2015-04-27 05:58:00,44.1,39.9,30.10,NW,322,0.0,0.0,85,0.00,CLR,SCT,0.00,0.0,WeatherDisplay:10.37,2015-04-27 12:58:00,
2015-04-27 06:04:00,44.1,40.2,30.10,NW,322,0.0,0.0,86,0.00,CLR,SCT,0.00,0.0,WeatherDisplay:10.37,2015-04-27 13:04:00,
2015-04-27 06:09:00,44.0,40.1,30.10,NW,322,0.0,0.0,86,0.00,CLR,SCT,0.00,0.0,WeatherDisplay:10.37,2015-04-27 13:09:00,
2015-04-27 06:14:00,44.0,40.4,30.10,NW,322,0.0,0.0,87,0.00,CLR,SCT,0.00,0.0,WeatherDisplay:10.37,2015-04-27 13:14:00,
2015-04-27 06:19:00,44.0,40.4,30.11,NW,322,0.0,0.0,87,0.00,CLR,SCT,0.00,0.0,WeatherDisplay:10.37,2015-04-27 13:19:00,
2015-04-27 06:24:00,44.0,40.4,30.11,NW,322,0.0,0.0,87,0.00,CLR,SCT,0.00,0.0,WeatherDisplay:10.37,2015-04-27 13:24:00,
2015-04-27 06:29:00,44.0,40.4,30.11,NW,322,0.0,0.0,87,0.00,CLR,SCT,0.00,0.0,WeatherDisplay:10.37,2015-04-27 13:29:00,
2015-04-27 06:34:00,44.1,40.5,30.11,NW,322,0.0,0.0,87,0.00,CLR,SCT,0.00,0.0,WeatherDisplay:10.37,2015-04-27 13:34:00,
2015-04-27 06:39:00,44.0,40.4,30.10,NW,322,0.0,0.0,87,0.00,CLR,SCT,0.00,0.0,WeatherDisplay:10.37,2015-04-27 13:39:00,
2015-04-27 06:44:00,44.0,40.4,30.10,NW,322,0.0,0.0,87,0.00,CLR,SCT,0.00,0.0,WeatherDisplay:10.37,2015-04-27 13:44:00,
2015-04-27 06:49:00,44.0,40.4,30.10,NW,322,0.0,0.0,87,0.00,CLR,SCT,0.00,0.0,WeatherDisplay:10.37,2015-04-27 13:49:00,
2015-04-27 06:54:00,44.1,40.5,30.10,NW,323,0.0,0.0,87,0.00,CLR,SCT,0.00,0.0,WeatherDisplay:10.37,2015-04-27 13:54:00,
2015-04-27 06:59:00,44.2,40.6,30.10,NW,323,0.0,0.0,87,0.00,CLR,SCT,0.00,0.0,WeatherDisplay:10.37,2015-04-27 13:59:00,
2015-04-27 07:04:00,44.2,40.3,30.11,NE,55,0.0,0.0,86,0.00,CLR,SCT,0.00,0.0,WeatherDisplay:10.37,2015-04-27 14:04:00,
2015-04-27 07:09:00,44.2,40.0,30.11,NE,55,0.0,0.0,85,0.00,CLR,SCT,0.00,0.0,WeatherDisplay:10.37,2015-04-27 14:09:00,
2015-04-27 07:14:00,44.3,40.4,30.11,NE,55,0.0,0.0,86,0.00,CLR,SCT,0.00,0.0,WeatherDisplay:10.37,2015-04-27 14:14:00,
2015-04-27 07:19:00,44.3,40.4,30.11,NW,321,1.1,0.0,86,0.00,CLR,SCT,0.00,0.0,WeatherDisplay:10.37,2015-04-27 14:19:00,
2015-04-27 07:24:00,44.3,40.4,30.11,NW,321,0.0,0.0,86,0.00,CLR,SCT,0.00,0.0,WeatherDisplay:10.37,2015-04-27 14:24:00,
2015-04-27 07:29:00,44.4,40.5,30.11,NW,321,0.0,0.0,86,0.00,CLR,SCT,0.00,0.0,WeatherDisplay:10.37,2015-04-27 14:29:00,
2015-04-27 07:34:00,44.5,40.3,30.11,NW,321,0.0,0.0,85,0.00,CLR,SCT,0.00,0.0,WeatherDisplay:10.37,2015-04-27 14:34:00,
2015-04-27 07:39:00,44.8,40.6,30.11,NW,321,1.1,1.1,85,0.00,CLR,SCT,0.00,0.0,WeatherDisplay:10.37,2015-04-27 14:39:00,
2015-04-27 07:44:00,45.0,40.5,30.11,NW,321,1.1,1.1,84,0.00,CLR,SCT,0.00,0.0,WeatherDisplay:10.37,2015-04-27 14:44:00,
2015-04-27 07:49:00,45.3,40.7,30.11,NW,321,1.1,1.1,84,0.00,CLR,SCT,0.00,0.0,WeatherDisplay:10.37,2015-04-27 14:49:00,
2015-04-27 07:54:00,45.6,40.7,30.11,NW,321,0.0,0.1,83,0.00,CLR,SCT,0.00,0.0,WeatherDisplay:10.37,2015-04-27 14:54:00,
2015-04-27 07:59:00,45.9,41.0,30.11,NW,321,1.1,1.1,83,0.00,CLR,SCT,0.00,0.0,WeatherDisplay:10.37,2015-04-27 14:59:00,
2015-04-27 08:09:00,46.8,41.6,30.11,NW,321,1.1,0.0,82,0.00,CLR,SCT,0.00,0.0,WeatherDisplay:10.37,2015-04-27 15:09:00,
2015-04-27 08:19:00,47.7,42.2,30.11,NW,321,1.1,1.1,81,0.00,CLR,SCT,0.00,0.0,WeatherDisplay:10.37,2015-04-27 15:19:00,
2015-04-27 08:24:00,48.2,42.3,30.11,NW,321,0.0,0.1,80,0.00,CLR,SCT,0.00,0.0,WeatherDisplay:10.37,2015-04-27 15:24:00,
2015-04-27 08:29:00,48.8,42.6,30.10,NW,321,1.1,0.0,79,0.00,CLR,SCT,0.00,0.0,WeatherDisplay:10.37,2015-04-27 15:29:00,
2015-04-27 08:34:00,49.6,42.7,30.11,NNW,344,2.3,2.3,77,0.00,CLR,SCT,0.00,0.0,WeatherDisplay:10.37,2015-04-27 15:34:00,
2015-04-27 08:39:00,50.3,41.6,30.11,NNW,347,1.1,1.1,72,0.00,CLR,SCT,0.00,0.0,WeatherDisplay:10.37,2015-04-27 15:39:00,
2015-04-27 08:44:00,51.2,41.7,30.10,NE,35,2.3,2.3,70,0.00,CLR,SCT,0.00,0.0,WeatherDisplay:10.37,2015-04-27 15:44:00,
2015-04-27 08:49:00,52.2,40.8,30.10,NNE,28,1.1,1.1,65,0.00,CLR,SCT,0.00,0.0,WeatherDisplay:10.37,2015-04-27 15:49:00,
2015-04-27 08:54:00,53.0,41.9,30.10,SE,127,2.0,2.0,66,0.00,CLR,SCT,0.00,0.0,WeatherDisplay:10.37,2015-04-27 15:54:00,
2015-04-27 08:59:00,54.1,42.2,30.10,SE,127,1.1,1.1,64,0.00,CLR,SCT,0.00,0.0,WeatherDisplay:10.37,2015-04-27 15:59:00,
2015-04-27 09:04:00,55.0,41.4,30.10,SE,126,1.1,1.1,60,0.00,CLR,SCT,0.00,0.0,WeatherDisplay:10.37,2015-04-27 16:04:00,
2015-04-27 09:09:00,55.9,41.8,30.10,SE,132,2.3,2.3,59,0.00,CLR,SCT,0.00,0.0,WeatherDisplay:10.37,2015-04-27 16:09:00,
2015-04-27 09:14:00,57.0,40.5,30.10,WNW,284,2.3,2.3,54,0.00,CLR,SCT,0.00,0.0,WeatherDisplay:10.37,2015-04-27 16:14:00,
2015-04-27 09:19:00,57.9,39.9,30.10,South,169,1.1,0.0,51,0.00,CLR,SCT,0.00,0.0,WeatherDisplay:10.37,2015-04-27 16:19:00,
2015-04-27 09:24:00,58.6,40.0,30.10,South,169,1.0,1.0,50,0.00,CLR,SCT,0.00,0.0,WeatherDisplay:10.37,2015-04-27 16:24:00,
2015-04-27 09:29:00,59.2,42.1,30.10,ESE,105,2.3,2.3,53,0.00,CLR,SCT,0.00,0.0,WeatherDisplay:10.37,2015-04-27 16:29:00,
2015-04-27 09:34:00,59.8,39.0,30.10,East,84,2.3,2.3,46,0.00,CLR,SCT,0.00,0.0,WeatherDisplay:10.37,2015-04-27 16:34:00,
2015-04-27 09:39:00,60.4,38.4,30.09,NW,319,1.1,1.1,44,0.00,CLR,SCT,0.00,0.0,WeatherDisplay:10.37,2015-04-27 16:39:00,
2015-04-27 09:44:00,61.0,37.7,30.09,NW,319,1.1,1.1,42,0.00,CLR,SCT,0.00,0.0,WeatherDisplay:10.37,2015-04-27 16:44:00,
2015-04-27 09:49:00,61.8,39.6,30.09,WNW,302,3.5,3.5,44,0.00,CLR,SCT,0.00,0.0,WeatherDisplay:10.37,2015-04-27 16:49:00,
2015-04-27 09:54:00,62.5,39.1,30.09,North,350,2.3,2.3,42,0.00,CLR,SCT,0.00,0.0,WeatherDisplay:10.37,2015-04-27 16:54:00,
2015-04-27 09:59:00,63.2,38.5,30.09,NW,321,2.3,2.3,40,0.00,CLR,SCT,0.00,0.0,WeatherDisplay:10.37,2015-04-27 16:59:00,
2015-04-27 10:04:00,64.0,37.2,30.09,NNW,327,1.1,1.1,37,0.00,CLR,SCT,0.00,0.0,WeatherDisplay:10.37,2015-04-27 17:04:00,
2015-04-27 10:09:00,64.8,39.2,30.09,NW,313,1.1,1.1,39,0.00,CLR,SCT,0.00,0.0,WeatherDisplay:10.37,2015-04-27 17:09:00,
2015-04-27 10:14:00,65.5,38.5,30.09,NE,39,1.1,1.5,37,0.00,CLR,SCT,0.00,0.0,WeatherDisplay:10.37,2015-04-27 17:14:00,